sensor_id;sensor_type;location;lat;lon;timestamp;pressure;altitude;pressure_sealevel;temperature;humidity
18323;BME280;9287;49.456;11.064;2023-01-16T00:01:12;97086.28;;;2.04;100.00
18323;BME280;9287;49.456;11.064;2023-01-16T00:03:40;97073.75;;;2.17;100.00
18323;BME280;9287;49.456;11.064;2023-01-16T00:06:07;97071.22;;;2.12;100.00
18323;BME280;9287;49.456;11.064;2023-01-16T00:08:35;97059.97;;;2.18;100.00
18323;BME280;9287;49.456;11.064;2023-01-16T00:11:03;97063.59;;;2.14;100.00
18323;BME280;9287;49.456;11.064;2023-01-16T00:13:31;97064.56;;;2.18;100.00
18323;BME280;9287;49.456;11.064;2023-01-16T00:15:59;97055.38;;;2.19;100.00
18323;BME280;9287;49.456;11.064;2023-01-16T00:18:28;97057.09;;;2.15;100.00
18323;BME280;9287;49.456;11.064;2023-01-16T00:20:56;97061.38;;;2.16;100.00
18323;BME280;9287;49.456;11.064;2023-01-16T00:23:24;97060.75;;;2.19;100.00
18323;BME280;9287;49.456;11.064;2023-01-16T00:25:52;97053.47;;;2.19;100.00
18323;BME280;9287;49.456;11.064;2023-01-16T00:28:19;97053.44;;;2.28;100.00
18323;BME280;9287;49.456;11.064;2023-01-16T00:30:47;97047.13;;;2.24;100.00
18323;BME280;9287;49.456;11.064;2023-01-16T00:33:15;97045.19;;;2.33;100.00
18323;BME280;9287;49.456;11.064;2023-01-16T00:35:46;97032.81;;;2.32;100.00
18323;BME280;9287;49.456;11.064;2023-01-16T00:38:14;97039.06;;;2.15;100.00
18323;BME280;9287;49.456;11.064;2023-01-16T00:40:42;97035.25;;;2.16;100.00
18323;BME280;9287;49.456;11.064;2023-01-16T00:43:10;97033.50;;;2.12;100.00
18323;BME280;9287;49.456;11.064;2023-01-16T00:45:37;97017.69;;;2.01;100.00
18323;BME280;9287;49.456;11.064;2023-01-16T00:48:06;97024.66;;;2.02;100.00
18323;BME280;9287;49.456;11.064;2023-01-16T00:50:34;97015.00;;;2.01;100.00
18323;BME280;9287;49.456;11.064;2023-01-16T00:53:03;97006.78;;;1.98;100.00
18323;BME280;9287;49.456;11.064;2023-01-16T00:55:32;97005.81;;;2.02;100.00
18323;BME280;9287;49.456;11.064;2023-01-16T00:58:00;97006.41;;;2.08;100.00
18323;BME280;9287;49.456;11.064;2023-01-16T01:00:28;97000.56;;;2.15;100.00
18323;BME280;9287;49.456;11.064;2023-01-16T01:02:56;97006.41;;;2.08;100.00
18323;BME280;9287;49.456;11.064;2023-01-16T01:05:23;96991.41;;;1.98;100.00
18323;BME280;9287;49.456;11.064;2023-01-16T01:07:51;96998.50;;;2.12;100.00
18323;BME280;9287;49.456;11.064;2023-01-16T01:10:20;96991.19;;;2.21;100.00
18323;BME280;9287;49.456;11.064;2023-01-16T01:12:48;96998.97;;;2.14;100.00
18323;BME280;9287;49.456;11.064;2023-01-16T01:15:16;96991.84;;;2.09;100.00
18323;BME280;9287;49.456;11.064;2023-01-16T01:17:43;96989.00;;;2.14;100.00
18323;BME280;9287;49.456;11.064;2023-01-16T01:20:11;96987.09;;;2.15;100.00
18323;BME280;9287;49.456;11.064;2023-01-16T01:22:39;96981.06;;;2.09;100.00
18323;BME280;9287;49.456;11.064;2023-01-16T01:25:07;96968.72;;;2.08;100.00
18323;BME280;9287;49.456;11.064;2023-01-16T01:27:36;96956.25;;;2.03;100.00
18323;BME280;9287;49.456;11.064;2023-01-16T01:30:05;96965.28;;;1.99;100.00
18323;BME280;9287;49.456;11.064;2023-01-16T01:32:33;96957.03;;;2.04;100.00
18323;BME280;9287;49.456;11.064;2023-01-16T01:35:04;96947.06;;;2.04;100.00
18323;BME280;9287;49.456;11.064;2023-01-16T01:37:32;96954.03;;;2.05;100.00
18323;BME280;9287;49.456;11.064;2023-01-16T01:40:00;96955.00;;;1.92;100.00
18323;BME280;9287;49.456;11.064;2023-01-16T01:42:28;96957.53;;;1.97;100.00
18323;BME280;9287;49.456;11.064;2023-01-16T01:45:18;96936.63;;;1.94;100.00
18323;BME280;9287;49.456;11.064;2023-01-16T01:47:51;96947.84;;;2.05;100.00
18323;BME280;9287;49.456;11.064;2023-01-16T01:50:30;96945.19;;;1.96;100.00
18323;BME280;9287;49.456;11.064;2023-01-16T01:53:03;96933.66;;;1.87;100.00
18323;BME280;9287;49.456;11.064;2023-01-16T01:55:34;96930.59;;;1.97;100.00
18323;BME280;9287;49.456;11.064;2023-01-16T01:58:04;96920.47;;;1.94;100.00
18323;BME280;9287;49.456;11.064;2023-01-16T02:00:33;96922.34;;;2.02;100.00
18323;BME280;9287;49.456;11.064;2023-01-16T02:03:04;96916.59;;;2.13;100.00
18323;BME280;9287;49.456;11.064;2023-01-16T02:05:36;96912.16;;;2.17;100.00
18323;BME280;9287;49.456;11.064;2023-01-16T02:08:06;96919.63;;;2.11;100.00
18323;BME280;9287;49.456;11.064;2023-01-16T02:10:37;96912.94;;;2.17;100.00
18323;BME280;9287;49.456;11.064;2023-01-16T02:13:06;96905.50;;;2.23;100.00
18323;BME280;9287;49.456;11.064;2023-01-16T02:15:36;96897.97;;;2.07;100.00
18323;BME280;9287;49.456;11.064;2023-01-16T02:18:25;96883.56;;;1.95;100.00
18323;BME280;9287;49.456;11.064;2023-01-16T02:21:25;96888.97;;;1.95;100.00
18323;BME280;9287;49.456;11.064;2023-01-16T02:24:12;96871.09;;;1.90;100.00
18323;BME280;9287;49.456;11.064;2023-01-16T02:27:00;96875.53;;;1.86;100.00
18323;BME280;9287;49.456;11.064;2023-01-16T02:30:00;96861.44;;;1.89;100.00
18323;BME280;9287;49.456;11.064;2023-01-16T02:32:40;96851.00;;;1.88;100.00
18323;BME280;9287;49.456;11.064;2023-01-16T02:35:29;96847.69;;;1.82;100.00
18323;BME280;9287;49.456;11.064;2023-01-16T02:38:03;96832.19;;;1.79;100.00
18323;BME280;9287;49.456;11.064;2023-01-16T02:40:42;96829.31;;;1.84;100.00
18323;BME280;9287;49.456;11.064;2023-01-16T02:43:23;96833.41;;;1.90;100.00
18323;BME280;9287;49.456;11.064;2023-01-16T02:46:05;96820.13;;;1.85;100.00
18323;BME280;9287;49.456;11.064;2023-01-16T02:48:39;96821.97;;;1.93;100.00
18323;BME280;9287;49.456;11.064;2023-01-16T02:51:12;96819.25;;;2.02;100.00
18323;BME280;9287;49.456;11.064;2023-01-16T02:53:47;96806.63;;;1.94;100.00
18323;BME280;9287;49.456;11.064;2023-01-16T02:56:20;96805.88;;;2.14;100.00
18323;BME280;9287;49.456;11.064;2023-01-16T02:58:50;96794.06;;;2.06;100.00
18323;BME280;9287;49.456;11.064;2023-01-16T03:01:19;96782.06;;;1.95;100.00
18323;BME280;9287;49.456;11.064;2023-01-16T03:03:50;96785.50;;;2.04;100.00
18323;BME280;9287;49.456;11.064;2023-01-16T03:06:36;96779.84;;;1.97;100.00
18323;BME280;9287;49.456;11.064;2023-01-16T03:09:21;96781.72;;;2.05;100.00
18323;BME280;9287;49.456;11.064;2023-01-16T03:12:09;96773.81;;;2.00;100.00
18323;BME280;9287;49.456;11.064;2023-01-16T03:14:47;96769.63;;;2.12;100.00
18323;BME280;9287;49.456;11.064;2023-01-16T03:17:24;96757.16;;;2.07;100.00
18323;BME280;9287;49.456;11.064;2023-01-16T03:20:10;96753.56;;;1.94;100.00
18323;BME280;9287;49.456;11.064;2023-01-16T03:22:44;96748.47;;;2.01;100.00
18323;BME280;9287;49.456;11.064;2023-01-16T03:25:21;96747.94;;;2.08;100.00
18323;BME280;9287;49.456;11.064;2023-01-16T03:27:57;96745.31;;;1.99;100.00
18323;BME280;9287;49.456;11.064;2023-01-16T03:30:32;96735.72;;;2.10;100.00
18323;BME280;9287;49.456;11.064;2023-01-16T03:33:07;96746.50;;;2.10;100.00
18323;BME280;9287;49.456;11.064;2023-01-16T03:35:43;96732.84;;;2.16;100.00
18323;BME280;9287;49.456;11.064;2023-01-16T03:38:15;96713.53;;;2.14;100.00
18323;BME280;9287;49.456;11.064;2023-01-16T03:40:46;96698.72;;;2.07;100.00
18323;BME280;9287;49.456;11.064;2023-01-16T03:43:19;96688.31;;;1.97;100.00
18323;BME280;9287;49.456;11.064;2023-01-16T03:45:51;96680.69;;;1.99;100.00
18323;BME280;9287;49.456;11.064;2023-01-16T03:48:22;96675.31;;;1.99;100.00
18323;BME280;9287;49.456;11.064;2023-01-16T03:50:55;96648.59;;;1.94;100.00
18323;BME280;9287;49.456;11.064;2023-01-16T03:53:28;96650.09;;;1.83;100.00
18323;BME280;9287;49.456;11.064;2023-01-16T03:56:03;96638.13;;;1.93;100.00
18323;BME280;9287;49.456;11.064;2023-01-16T03:58:48;96644.84;;;1.87;100.00
18323;BME280;9287;49.456;11.064;2023-01-16T04:01:22;96637.16;;;1.77;100.00
18323;BME280;9287;49.456;11.064;2023-01-16T04:03:58;96629.50;;;1.87;100.00
18323;BME280;9287;49.456;11.064;2023-01-16T04:06:32;96627.66;;;1.79;100.00
18323;BME280;9287;49.456;11.064;2023-01-16T04:09:06;96630.19;;;1.75;100.00
18323;BME280;9287;49.456;11.064;2023-01-16T04:11:36;96625.53;;;1.64;100.00
18323;BME280;9287;49.456;11.064;2023-01-16T04:14:09;96626.84;;;1.58;100.00
18323;BME280;9287;49.456;11.064;2023-01-16T04:16:38;96631.56;;;1.61;100.00
18323;BME280;9287;49.456;11.064;2023-01-16T04:19:08;96615.44;;;1.61;100.00
18323;BME280;9287;49.456;11.064;2023-01-16T04:21:44;96602.63;;;1.58;100.00
18323;BME280;9287;49.456;11.064;2023-01-16T04:24:12;96601.50;;;1.59;100.00
18323;BME280;9287;49.456;11.064;2023-01-16T04:26:40;96599.03;;;1.54;100.00
18323;BME280;9287;49.456;11.064;2023-01-16T04:29:08;96591.81;;;1.46;100.00
18323;BME280;9287;49.456;11.064;2023-01-16T04:31:36;96589.28;;;1.40;100.00
18323;BME280;9287;49.456;11.064;2023-01-16T04:34:04;96579.06;;;1.34;100.00
18323;BME280;9287;49.456;11.064;2023-01-16T04:36:32;96572.16;;;1.24;100.00
18323;BME280;9287;49.456;11.064;2023-01-16T04:39:01;96565.50;;;1.30;100.00
18323;BME280;9287;49.456;11.064;2023-01-16T04:41:28;96564.56;;;1.26;100.00
18323;BME280;9287;49.456;11.064;2023-01-16T04:44:08;96553.09;;;1.17;100.00
18323;BME280;9287;49.456;11.064;2023-01-16T04:46:36;96555.94;;;1.12;100.00
18323;BME280;9287;49.456;11.064;2023-01-16T04:49:05;96547.97;;;1.03;100.00
18323;BME280;9287;49.456;11.064;2023-01-16T04:51:33;96542.06;;;1.10;100.00
18323;BME280;9287;49.456;11.064;2023-01-16T04:54:03;96536.66;;;1.10;100.00
18323;BME280;9287;49.456;11.064;2023-01-16T04:56:32;96532.59;;;1.04;100.00
18323;BME280;9287;49.456;11.064;2023-01-16T04:58:59;96522.75;;;1.08;100.00
18323;BME280;9287;49.456;11.064;2023-01-16T05:01:27;96514.91;;;1.03;100.00
18323;BME280;9287;49.456;11.064;2023-01-16T05:04:01;96515.97;;;1.11;100.00
18323;BME280;9287;49.456;11.064;2023-01-16T05:06:29;96504.41;;;1.10;100.00
18323;BME280;9287;49.456;11.064;2023-01-16T05:08:56;96505.06;;;1.07;100.00
18323;BME280;9287;49.456;11.064;2023-01-16T05:11:25;96501.91;;;1.05;100.00
18323;BME280;9287;49.456;11.064;2023-01-16T05:13:53;96495.63;;;1.01;100.00
18323;BME280;9287;49.456;11.064;2023-01-16T05:16:21;96499.16;;;0.93;100.00
18323;BME280;9287;49.456;11.064;2023-01-16T05:18:49;96492.19;;;0.92;100.00
18323;BME280;9287;49.456;11.064;2023-01-16T05:21:16;96477.41;;;0.86;100.00
18323;BME280;9287;49.456;11.064;2023-01-16T05:23:44;96476.47;;;0.82;100.00
18323;BME280;9287;49.456;11.064;2023-01-16T05:26:12;96464.69;;;0.95;100.00
18323;BME280;9287;49.456;11.064;2023-01-16T05:28:41;96459.03;;;0.88;100.00
18323;BME280;9287;49.456;11.064;2023-01-16T05:31:08;96453.66;;;0.88;100.00
18323;BME280;9287;49.456;11.064;2023-01-16T05:33:36;96447.38;;;0.84;100.00
18323;BME280;9287;49.456;11.064;2023-01-16T05:36:04;96440.56;;;0.86;100.00
18323;BME280;9287;49.456;11.064;2023-01-16T05:38:32;96441.31;;;0.87;100.00
18323;BME280;9287;49.456;11.064;2023-01-16T05:41:00;96435.06;;;0.83;100.00
18323;BME280;9287;49.456;11.064;2023-01-16T05:43:28;96432.38;;;0.83;100.00
18323;BME280;9287;49.456;11.064;2023-01-16T05:45:57;96422.88;;;0.85;100.00
18323;BME280;9287;49.456;11.064;2023-01-16T05:48:25;96415.78;;;0.81;100.00
18323;BME280;9287;49.456;11.064;2023-01-16T05:50:54;96422.31;;;0.71;100.00
18323;BME280;9287;49.456;11.064;2023-01-16T05:53:22;96406.97;;;0.72;100.00
18323;BME280;9287;49.456;11.064;2023-01-16T05:55:50;96395.59;;;0.75;100.00
18323;BME280;9287;49.456;11.064;2023-01-16T05:58:17;96397.44;;;0.83;100.00
18323;BME280;9287;49.456;11.064;2023-01-16T06:00:45;96388.66;;;0.74;100.00
18323;BME280;9287;49.456;11.064;2023-01-16T06:03:15;96384.19;;;0.78;100.00
18323;BME280;9287;49.456;11.064;2023-01-16T06:05:43;96389.56;;;0.78;100.00
18323;BME280;9287;49.456;11.064;2023-01-16T06:08:11;96400.59;;;0.85;100.00
18323;BME280;9287;49.456;11.064;2023-01-16T06:10:39;96390.22;;;0.75;100.00
18323;BME280;9287;49.456;11.064;2023-01-16T06:13:07;96384.97;;;0.78;100.00
18323;BME280;9287;49.456;11.064;2023-01-16T06:15:34;96382.22;;;0.87;100.00
18323;BME280;9287;49.456;11.064;2023-01-16T06:18:02;96389.06;;;0.84;100.00
18323;BME280;9287;49.456;11.064;2023-01-16T06:20:32;96381.97;;;0.80;100.00
18323;BME280;9287;49.456;11.064;2023-01-16T06:22:59;96381.44;;;0.86;100.00
18323;BME280;9287;49.456;11.064;2023-01-16T06:25:27;96357.38;;;0.90;100.00
18323;BME280;9287;49.456;11.064;2023-01-16T06:27:55;96346.84;;;0.85;100.00
18323;BME280;9287;49.456;11.064;2023-01-16T06:30:23;96345.00;;;0.77;100.00
18323;BME280;9287;49.456;11.064;2023-01-16T06:32:51;96338.56;;;0.90;100.00
18323;BME280;9287;49.456;11.064;2023-01-16T06:35:19;96338.53;;;0.78;100.00
18323;BME280;9287;49.456;11.064;2023-01-16T06:37:48;96336.88;;;0.85;100.00
18323;BME280;9287;49.456;11.064;2023-01-16T06:40:16;96333.16;;;0.78;100.00
18323;BME280;9287;49.456;11.064;2023-01-16T06:42:45;96337.41;;;0.79;100.00
18323;BME280;9287;49.456;11.064;2023-01-16T06:45:13;96328.63;;;0.69;100.00
18323;BME280;9287;49.456;11.064;2023-01-16T06:47:40;96317.69;;;0.75;100.00
18323;BME280;9287;49.456;11.064;2023-01-16T06:50:09;96316.56;;;0.76;100.00
18323;BME280;9287;49.456;11.064;2023-01-16T06:52:37;96312.50;;;0.69;100.00
18323;BME280;9287;49.456;11.064;2023-01-16T06:55:10;96308.97;;;0.78;100.00
18323;BME280;9287;49.456;11.064;2023-01-16T06:57:43;96303.34;;;0.70;100.00
18323;BME280;9287;49.456;11.064;2023-01-16T07:00:12;96300.22;;;0.68;100.00
18323;BME280;9287;49.456;11.064;2023-01-16T07:02:40;96291.28;;;0.77;100.00
18323;BME280;9287;49.456;11.064;2023-01-16T07:05:09;96289.06;;;0.79;100.00
18323;BME280;9287;49.456;11.064;2023-01-16T07:07:37;96278.97;;;0.76;100.00
18323;BME280;9287;49.456;11.064;2023-01-16T07:10:06;96268.94;;;0.85;100.00
18323;BME280;9287;49.456;11.064;2023-01-16T07:12:35;96273.19;;;0.86;100.00
18323;BME280;9287;49.456;11.064;2023-01-16T07:15:03;96278.13;;;0.96;100.00
18323;BME280;9287;49.456;11.064;2023-01-16T07:17:48;96262.66;;;0.93;100.00
18323;BME280;9287;49.456;11.064;2023-01-16T07:20:34;96260.91;;;0.97;100.00
18323;BME280;9287;49.456;11.064;2023-01-16T07:23:22;96245.22;;;0.99;100.00
18323;BME280;9287;49.456;11.064;2023-01-16T07:25:53;96244.34;;;1.07;100.00
18323;BME280;9287;49.456;11.064;2023-01-16T07:28:22;96236.94;;;1.04;100.00
18323;BME280;9287;49.456;11.064;2023-01-16T07:30:50;96233.38;;;1.12;100.00
18323;BME280;9287;49.456;11.064;2023-01-16T07:33:17;96222.19;;;1.10;100.00
18323;BME280;9287;49.456;11.064;2023-01-16T07:35:45;96221.50;;;1.13;100.00
18323;BME280;9287;49.456;11.064;2023-01-16T07:38:13;96213.00;;;1.23;100.00
18323;BME280;9287;49.456;11.064;2023-01-16T07:40:41;96204.38;;;1.30;100.00
18323;BME280;9287;49.456;11.064;2023-01-16T07:43:10;96198.34;;;1.21;100.00
18323;BME280;9287;49.456;11.064;2023-01-16T07:45:38;96184.13;;;1.20;100.00
18323;BME280;9287;49.456;11.064;2023-01-16T07:48:05;96185.00;;;1.24;100.00
18323;BME280;9287;49.456;11.064;2023-01-16T07:50:33;96170.22;;;1.30;100.00
18323;BME280;9287;49.456;11.064;2023-01-16T07:53:01;96171.78;;;1.31;100.00
18323;BME280;9287;49.456;11.064;2023-01-16T07:55:28;96162.72;;;1.36;100.00
18323;BME280;9287;49.456;11.064;2023-01-16T07:57:56;96165.28;;;1.45;100.00
18323;BME280;9287;49.456;11.064;2023-01-16T08:00:25;96164.06;;;1.42;100.00
18323;BME280;9287;49.456;11.064;2023-01-16T08:02:53;96156.75;;;1.43;100.00
18323;BME280;9287;49.456;11.064;2023-01-16T08:05:21;96144.66;;;1.49;100.00
18323;BME280;9287;49.456;11.064;2023-01-16T08:07:48;96157.19;;;1.57;100.00
18323;BME280;9287;49.456;11.064;2023-01-16T08:10:16;96150.38;;;1.71;100.00
18323;BME280;9287;49.456;11.064;2023-01-16T08:12:44;96153.97;;;2.03;100.00
18323;BME280;9287;49.456;11.064;2023-01-16T08:15:12;96140.38;;;2.40;100.00
18323;BME280;9287;49.456;11.064;2023-01-16T08:17:41;96129.97;;;2.54;100.00
18323;BME280;9287;49.456;11.064;2023-01-16T08:20:09;96117.41;;;3.05;100.00
18323;BME280;9287;49.456;11.064;2023-01-16T08:22:41;96108.94;;;3.38;100.00
18323;BME280;9287;49.456;11.064;2023-01-16T08:25:09;96117.06;;;3.93;96.34
18323;BME280;9287;49.456;11.064;2023-01-16T08:27:37;96102.97;;;4.22;91.54
18323;BME280;9287;49.456;11.064;2023-01-16T08:30:06;96101.94;;;4.07;91.08
18323;BME280;9287;49.456;11.064;2023-01-16T08:32:34;96090.63;;;4.21;90.07
18323;BME280;9287;49.456;11.064;2023-01-16T08:35:04;96089.47;;;4.03;91.06
18323;BME280;9287;49.456;11.064;2023-01-16T08:37:32;96074.47;;;3.67;92.16
18323;BME280;9287;49.456;11.064;2023-01-16T08:40:00;96071.78;;;3.67;93.54
18323;BME280;9287;49.456;11.064;2023-01-16T08:42:30;96061.84;;;3.71;95.63
18323;BME280;9287;49.456;11.064;2023-01-16T08:45:15;96055.38;;;3.56;96.03
18323;BME280;9287;49.456;11.064;2023-01-16T08:48:00;96050.06;;;3.60;94.69
18323;BME280;9287;49.456;11.064;2023-01-16T08:50:48;96044.81;;;3.32;96.25
18323;BME280;9287;49.456;11.064;2023-01-16T08:53:33;96033.44;;;3.77;94.74
18323;BME280;9287;49.456;11.064;2023-01-16T08:56:01;96037.28;;;3.76;93.63
18323;BME280;9287;49.456;11.064;2023-01-16T08:58:28;96030.09;;;4.45;88.87
18323;BME280;9287;49.456;11.064;2023-01-16T09:00:57;96019.16;;;5.36;82.23
18323;BME280;9287;49.456;11.064;2023-01-16T09:03:28;96022.16;;;5.31;77.66
18323;BME280;9287;49.456;11.064;2023-01-16T09:05:57;96004.66;;;5.51;74.51
18323;BME280;9287;49.456;11.064;2023-01-16T09:08:24;96017.97;;;5.64;71.96
18323;BME280;9287;49.456;11.064;2023-01-16T09:10:52;96013.75;;;5.10;74.53
18323;BME280;9287;49.456;11.064;2023-01-16T09:13:37;96012.78;;;5.25;74.47
18323;BME280;9287;49.456;11.064;2023-01-16T09:16:19;95999.31;;;6.22;68.96
18323;BME280;9287;49.456;11.064;2023-01-16T09:18:47;96001.06;;;5.74;69.55
18323;BME280;9287;49.456;11.064;2023-01-16T09:21:17;95996.69;;;6.73;64.50
18323;BME280;9287;49.456;11.064;2023-01-16T09:23:45;96004.16;;;6.43;64.53
18323;BME280;9287;49.456;11.064;2023-01-16T09:26:13;95998.59;;;6.28;64.53
18323;BME280;9287;49.456;11.064;2023-01-16T09:28:41;95999.28;;;6.18;66.51
18323;BME280;9287;49.456;11.064;2023-01-16T09:31:09;95984.94;;;5.84;67.29
18323;BME280;9287;49.456;11.064;2023-01-16T09:33:37;95977.09;;;6.09;67.90
18323;BME280;9287;49.456;11.064;2023-01-16T09:36:05;95965.53;;;6.53;65.31
18323;BME280;9287;49.456;11.064;2023-01-16T09:38:34;95976.09;;;7.20;61.08
18323;BME280;9287;49.456;11.064;2023-01-16T09:41:02;95954.19;;;6.88;61.68
18323;BME280;9287;49.456;11.064;2023-01-16T09:43:35;95963.53;;;6.97;58.79
18323;BME280;9287;49.456;11.064;2023-01-16T09:46:09;95951.69;;;6.65;60.44
18323;BME280;9287;49.456;11.064;2023-01-16T09:48:45;95939.06;;;6.36;61.46
18323;BME280;9287;49.456;11.064;2023-01-16T09:51:18;95952.66;;;6.02;61.84
18323;BME280;9287;49.456;11.064;2023-01-16T09:53:51;95945.13;;;6.25;62.51
18323;BME280;9287;49.456;11.064;2023-01-16T09:56:40;95940.03;;;6.61;59.27
18323;BME280;9287;49.456;11.064;2023-01-16T09:59:31;95931.13;;;6.16;61.68
18323;BME280;9287;49.456;11.064;2023-01-16T10:02:07;95919.13;;;6.65;59.24
18323;BME280;9287;49.456;11.064;2023-01-16T10:04:38;95914.84;;;6.57;58.08
18323;BME280;9287;49.456;11.064;2023-01-16T10:07:43;95902.09;;;5.80;60.86
18323;BME280;9287;49.456;11.064;2023-01-16T10:10:29;95897.84;;;5.45;63.06
18323;BME280;9287;49.456;11.064;2023-01-16T10:13:07;95890.84;;;6.15;60.41
18323;BME280;9287;49.456;11.064;2023-01-16T10:15:40;95878.22;;;6.33;59.78
18323;BME280;9287;49.456;11.064;2023-01-16T10:18:22;95889.47;;;6.35;58.46
18323;BME280;9287;49.456;11.064;2023-01-16T10:21:19;95876.41;;;7.10;56.76
18323;BME280;9287;49.456;11.064;2023-01-16T10:24:00;95854.38;;;7.32;55.72
18323;BME280;9287;49.456;11.064;2023-01-16T10:26:37;95856.91;;;8.12;52.90
18323;BME280;9287;49.456;11.064;2023-01-16T10:29:18;95848.19;;;7.32;54.19
18323;BME280;9287;49.456;11.064;2023-01-16T10:31:50;95839.25;;;7.28;53.96
18323;BME280;9287;49.456;11.064;2023-01-16T10:34:23;95832.84;;;8.39;52.70
18323;BME280;9287;49.456;11.064;2023-01-16T10:36:56;95838.66;;;8.52;51.40
18323;BME280;9287;49.456;11.064;2023-01-16T10:39:27;95832.44;;;8.23;49.90
18323;BME280;9287;49.456;11.064;2023-01-16T10:42:08;95828.47;;;7.56;51.95
18323;BME280;9287;49.456;11.064;2023-01-16T10:44:58;95814.56;;;8.50;51.39
18323;BME280;9287;49.456;11.064;2023-01-16T10:48:09;95813.75;;;7.57;52.67
18323;BME280;9287;49.456;11.064;2023-01-16T10:50:56;95803.22;;;7.34;53.90
18323;BME280;9287;49.456;11.064;2023-01-16T10:53:25;95800.78;;;7.05;54.53
18323;BME280;9287;49.456;11.064;2023-01-16T10:55:55;95799.59;;;6.91;55.07
18323;BME280;9287;49.456;11.064;2023-01-16T10:58:27;95793.44;;;6.33;56.32
18323;BME280;9287;49.456;11.064;2023-01-16T11:01:01;95787.19;;;6.21;56.71
18323;BME280;9287;49.456;11.064;2023-01-16T11:03:34;95782.03;;;6.09;57.15
18323;BME280;9287;49.456;11.064;2023-01-16T11:06:08;95769.66;;;6.77;55.46
18323;BME280;9287;49.456;11.064;2023-01-16T11:08:36;95761.19;;;6.93;54.81
18323;BME280;9287;49.456;11.064;2023-01-16T11:11:16;95758.78;;;6.67;54.82
18323;BME280;9287;49.456;11.064;2023-01-16T11:14:09;95736.94;;;6.35;55.61
18323;BME280;9287;49.456;11.064;2023-01-16T11:16:56;95732.22;;;6.24;57.29
18323;BME280;9287;49.456;11.064;2023-01-16T11:19:57;95712.97;;;6.47;58.51
18323;BME280;9287;49.456;11.064;2023-01-16T11:22:27;95699.09;;;6.63;57.42
18323;BME280;9287;49.456;11.064;2023-01-16T11:24:56;95717.91;;;6.27;57.89
18323;BME280;9287;49.456;11.064;2023-01-16T11:27:30;95696.72;;;6.51;57.57
18323;BME280;9287;49.456;11.064;2023-01-16T11:30:03;95687.41;;;6.45;57.37
18323;BME280;9287;49.456;11.064;2023-01-16T11:32:35;95674.25;;;6.47;58.06
18323;BME280;9287;49.456;11.064;2023-01-16T11:35:12;95670.38;;;6.44;58.35
18323;BME280;9287;49.456;11.064;2023-01-16T11:37:42;95685.97;;;6.72;57.72
18323;BME280;9287;49.456;11.064;2023-01-16T11:40:16;95676.53;;;6.41;57.86
18323;BME280;9287;49.456;11.064;2023-01-16T11:42:56;95667.31;;;6.60;56.87
18323;BME280;9287;49.456;11.064;2023-01-16T11:45:46;95665.78;;;6.55;57.00
18323;BME280;9287;49.456;11.064;2023-01-16T11:48:37;95645.41;;;6.03;58.14
18323;BME280;9287;49.456;11.064;2023-01-16T11:51:06;95626.81;;;5.98;59.08
18323;BME280;9287;49.456;11.064;2023-01-16T11:53:36;95611.16;;;5.74;60.55
18323;BME280;9287;49.456;11.064;2023-01-16T11:59:39;95591.38;;;5.63;61.94
18323;BME280;9287;49.456;11.064;2023-01-16T12:02:24;95574.41;;;5.73;61.73
18323;BME280;9287;49.456;11.064;2023-01-16T12:05:05;95561.19;;;5.60;62.07
18323;BME280;9287;49.456;11.064;2023-01-16T12:08:04;95554.22;;;5.56;62.78
18323;BME280;9287;49.456;11.064;2023-01-16T12:10:41;95554.66;;;5.65;62.22
18323;BME280;9287;49.456;11.064;2023-01-16T12:13:12;95559.31;;;5.72;62.71
18323;BME280;9287;49.456;11.064;2023-01-16T12:16:09;95553.88;;;5.65;61.54
18323;BME280;9287;49.456;11.064;2023-01-16T12:18:48;95558.22;;;5.83;60.99
18323;BME280;9287;49.456;11.064;2023-01-16T12:21:30;95547.63;;;5.57;60.93
18323;BME280;9287;49.456;11.064;2023-01-16T12:24:13;95542.28;;;5.64;60.96
18323;BME280;9287;49.456;11.064;2023-01-16T12:26:52;95546.19;;;5.74;60.12
18323;BME280;9287;49.456;11.064;2023-01-16T12:29:34;95544.59;;;5.66;59.38
18323;BME280;9287;49.456;11.064;2023-01-16T12:32:26;95537.81;;;6.00;58.70
18323;BME280;9287;49.456;11.064;2023-01-16T12:35:14;95533.09;;;5.83;58.66
18323;BME280;9287;49.456;11.064;2023-01-16T12:37:59;95533.16;;;5.97;58.27
18323;BME280;9287;49.456;11.064;2023-01-16T12:40:50;95551.88;;;5.54;59.70
18323;BME280;9287;49.456;11.064;2023-01-16T12:43:29;95565.53;;;5.76;59.07
18323;BME280;9287;49.456;11.064;2023-01-16T12:46:00;95545.41;;;5.70;58.97
18323;BME280;9287;49.456;11.064;2023-01-16T12:48:50;95546.91;;;5.64;59.81
18323;BME280;9287;49.456;11.064;2023-01-16T12:51:41;95543.72;;;5.47;60.04
18323;BME280;9287;49.456;11.064;2023-01-16T12:54:26;95552.28;;;5.56;60.65
18323;BME280;9287;49.456;11.064;2023-01-16T12:57:29;95550.06;;;5.76;60.11
18323;BME280;9287;49.456;11.064;2023-01-16T13:00:04;95548.88;;;5.74;59.53
18323;BME280;9287;49.456;11.064;2023-01-16T13:02:39;95548.22;;;5.91;59.08
18323;BME280;9287;49.456;11.064;2023-01-16T13:05:10;95539.59;;;5.68;59.63
18323;BME280;9287;49.456;11.064;2023-01-16T13:07:49;95524.56;;;5.81;59.27
18323;BME280;9287;49.456;11.064;2023-01-16T13:10:22;95539.22;;;5.73;59.39
18323;BME280;9287;49.456;11.064;2023-01-16T13:13:14;95563.72;;;5.94;59.78
18323;BME280;9287;49.456;11.064;2023-01-16T13:15:54;95533.97;;;6.08;58.41
18323;BME280;9287;49.456;11.064;2023-01-16T13:18:24;95533.16;;;5.97;58.80
18323;BME280;9287;49.456;11.064;2023-01-16T13:20:57;95522.38;;;6.04;57.89
18323;BME280;9287;49.456;11.064;2023-01-16T13:23:29;95518.44;;;5.91;57.07
18323;BME280;9287;49.456;11.064;2023-01-16T13:26:01;95516.03;;;5.79;56.59
18323;BME280;9287;49.456;11.064;2023-01-16T13:28:43;95509.50;;;5.87;57.13
18323;BME280;9287;49.456;11.064;2023-01-16T13:31:19;95506.09;;;5.97;56.91
18323;BME280;9287;49.456;11.064;2023-01-16T13:33:51;95509.41;;;5.66;57.59
18323;BME280;9287;49.456;11.064;2023-01-16T13:39:54;95526.13;;;5.82;57.38
18323;BME280;9287;49.456;11.064;2023-01-16T13:42:27;95522.72;;;5.96;57.24
18323;BME280;9287;49.456;11.064;2023-01-16T13:45:00;95519.28;;;6.06;56.97